Time;durP1;ratioP1;P1;durP2;ratioP2;P2;SDS_P1;SDS_P2;PMS_P1;PMS_P2;Temp;Humidity;BMP_temperature;BMP_pressure;BME280_temperature;BME280_humidity;BME280_pressure;Samples;Min_cycle;Max_cycle;Signal;HPM_P1;HPM_P2
2024/02/26 00:00:30;;;;;;;5.55;3.08;;;7.50;92.10;;;;;;4976727;28;20041;-75
2024/02/26 00:02:55;;;;;;;5.30;3.17;;;7.50;92.30;;;;;;4974981;28;20046;-76
2024/02/26 00:05:21;;;;;;;5.47;2.97;;;7.40;92.40;;;;;;4974539;28;20133;-76
2024/02/26 00:07:48;;;;;;;7.80;2.97;;;7.40;92.40;;;;;;4976574;28;20881;-77
2024/02/26 00:10:14;;;;;;;7.20;3.38;;;7.40;92.60;;;;;;4975737;28;20042;-77
2024/02/26 00:12:40;;;;;;;7.47;3.17;;;7.30;92.90;;;;;;4976629;28;20055;-75
2024/02/26 00:15:06;;;;;;;8.13;3.47;;;7.30;93.00;;;;;;4977755;28;20078;-76
2024/02/26 00:17:32;;;;;;;8.75;3.50;;;7.30;93.00;;;;;;4974612;28;20419;-77
2024/02/26 00:19:58;;;;;;;8.52;3.83;;;7.20;93.10;;;;;;4974361;28;20181;-76
2024/02/26 00:22:24;;;;;;;8.48;3.67;;;7.20;93.20;;;;;;4974537;28;20035;-76
2024/02/26 00:24:49;;;;;;;6.63;3.42;;;7.20;93.30;;;;;;4975074;28;20424;-76
2024/02/26 00:27:15;;;;;;;6.38;3.97;;;7.20;93.50;;;;;;4972944;28;20034;-73
2024/02/26 00:29:40;;;;;;;9.63;3.80;;;7.10;93.50;;;;;;4975687;28;20064;-79
2024/02/26 00:32:06;;;;;;;7.55;3.40;;;7.20;93.50;;;;;;4970895;28;20173;-76
2024/02/26 00:34:32;;;;;;;6.78;3.78;;;7.20;93.40;;;;;;4973511;28;20034;-77
2024/02/26 00:36:58;;;;;;;6.68;3.60;;;7.20;93.30;;;;;;4973712;28;20034;-76
2024/02/26 00:39:24;;;;;;;6.25;3.92;;;7.20;93.50;;;;;;4974486;28;20072;-76
2024/02/26 00:41:51;;;;;;;8.75;3.40;;;7.20;93.70;;;;;;4973404;28;20027;-76
2024/02/26 00:44:17;;;;;;;8.15;4.20;;;7.20;93.50;;;;;;4973962;28;20204;-77
2024/02/26 00:46:42;;;;;;;6.10;3.47;;;7.20;93.70;;;;;;4976271;28;20461;-76
2024/02/26 00:49:08;;;;;;;6.65;3.60;;;7.20;93.60;;;;;;4975457;28;20057;-74
2024/02/26 00:51:33;;;;;;;8.45;3.80;;;7.20;93.80;;;;;;4975510;28;20034;-73
2024/02/26 00:53:59;;;;;;;5.13;3.25;;;7.20;93.80;;;;;;4974318;28;20057;-73
2024/02/26 00:56:25;;;;;;;7.22;3.88;;;7.10;93.80;;;;;;4973771;28;20584;-73
2024/02/26 00:58:51;;;;;;;7.72;3.70;;;7.20;93.80;;;;;;4973552;28;20030;-78
2024/02/26 01:01:17;;;;;;;7.80;3.47;;;7.20;93.80;;;;;;4975869;28;20089;-75
2024/02/26 01:03:42;;;;;;;5.97;3.08;;;7.10;93.80;;;;;;4974858;28;20043;-76
2024/02/26 01:06:09;;;;;;;9.32;3.30;;;7.10;94.00;;;;;;4977495;28;20166;-77
2024/02/26 01:08:35;;;;;;;6.10;3.35;;;7.10;94.00;;;;;;4976650;28;20026;-73
2024/02/26 01:11:01;;;;;;;13.45;5.53;;;7.10;94.00;;;;;;4976891;28;20559;-76
2024/02/26 01:13:27;;;;;;;7.45;3.78;;;7.10;94.20;;;;;;4979998;28;20046;-76
2024/02/26 01:15:53;;;;;;;6.28;3.47;;;7.10;94.30;;;;;;4975164;28;20039;-74
2024/02/26 01:18:19;;;;;;;6.95;3.67;;;7.10;94.30;;;;;;4977129;28;20048;-74
2024/02/26 01:20:44;;;;;;;7.35;3.50;;;7.10;94.40;;;;;;4976386;28;20121;-74
2024/02/26 01:23:10;;;;;;;6.88;3.58;;;7.10;94.50;;;;;;4977953;28;20030;-75
2024/02/26 01:25:36;;;;;;;7.70;3.95;;;7.10;94.60;;;;;;4978048;28;20121;-75
2024/02/26 01:28:03;;;;;;;6.95;3.75;;;7.10;94.60;;;;;;4979673;28;20018;-74
2024/02/26 01:30:28;;;;;;;9.25;3.55;;;7.10;94.70;;;;;;4976819;28;20137;-76
2024/02/26 01:32:54;;;;;;;6.45;3.65;;;7.10;94.70;;;;;;4979824;28;20026;-75
2024/02/26 01:35:19;;;;;;;7.47;3.72;;;7.00;94.60;;;;;;4977229;28;20107;-74
2024/02/26 01:37:45;;;;;;;6.30;3.80;;;7.00;94.80;;;;;;4980332;28;20097;-75
2024/02/26 01:40:11;;;;;;;6.90;3.70;;;7.00;94.80;;;;;;4976296;28;20034;-75
2024/02/26 01:42:41;;;;;;;6.80;3.63;;;7.00;94.70;;;;;;4978976;28;20018;-76
2024/02/26 01:45:15;;;;;;;7.07;3.83;;;7.00;94.70;;;;;;4975887;28;20038;-74
2024/02/26 01:47:41;;;;;;;6.75;3.58;;;7.00;94.80;;;;;;4978691;28;20030;-75
2024/02/26 01:50:08;;;;;;;4.97;2.80;;;7.00;94.70;;;;;;4971826;28;20027;-75
2024/02/26 01:52:34;;;;;;;6.45;3.05;;;7.00;94.70;;;;;;4975707;28;20030;-77
2024/02/26 01:55:01;;;;;;;6.05;3.38;;;6.90;94.70;;;;;;4977273;28;20617;-74
2024/02/26 01:57:27;;;;;;;5.20;3.00;;;6.90;94.70;;;;;;4977322;28;20022;-75
2024/02/26 01:59:54;;;;;;;6.90;3.28;;;6.90;94.70;;;;;;4978674;28;20061;-78
2024/02/26 02:02:19;;;;;;;5.13;3.00;;;6.90;94.80;;;;;;4977936;28;20507;-75
2024/02/26 02:04:46;;;;;;;7.22;3.13;;;6.90;94.80;;;;;;4974225;28;20039;-75
2024/02/26 02:07:12;;;;;;;5.28;3.00;;;7.00;94.70;;;;;;4974984;28;20027;-76
2024/02/26 02:09:38;;;;;;;6.03;3.25;;;6.90;94.60;;;;;;4975205;28;20066;-76
2024/02/26 02:12:05;;;;;;;6.50;2.92;;;6.90;94.60;;;;;;4975371;28;20062;-77
2024/02/26 02:14:31;;;;;;;6.32;3.13;;;6.90;94.60;;;;;;4969517;28;20050;-75
2024/02/26 02:16:57;;;;;;;5.80;3.58;;;6.90;94.70;;;;;;4965788;28;20505;-73
2024/02/26 02:19:22;;;;;;;7.00;3.50;;;6.90;94.80;;;;;;4974734;28;20022;-75
2024/02/26 02:21:48;;;;;;;6.57;3.63;;;6.90;94.90;;;;;;4973762;28;20019;-75
2024/02/26 02:24:14;;;;;;;5.32;3.00;;;6.90;95.00;;;;;;4974263;28;20038;-74
2024/02/26 02:26:39;;;;;;;6.68;3.42;;;7.00;95.00;;;;;;4971744;28;20054;-74
2024/02/26 02:29:06;;;;;;;6.43;3.35;;;7.00;94.90;;;;;;4978079;28;20054;-74
2024/02/26 02:31:32;;;;;;;6.38;3.55;;;7.00;94.90;;;;;;4975399;28;20520;-73
2024/02/26 02:33:58;;;;;;;6.45;3.60;;;6.90;94.70;;;;;;4976883;28;20048;-76
2024/02/26 02:36:23;;;;;;;5.25;3.50;;;6.90;94.90;;;;;;4971078;28;20038;-74
2024/02/26 02:38:50;;;;;;;7.70;3.83;;;6.80;94.90;;;;;;4978293;28;20049;-78
2024/02/26 02:41:16;;;;;;;5.93;3.67;;;6.80;95.20;;;;;;4972200;28;20117;-75
2024/02/26 02:43:41;;;;;;;6.60;3.50;;;6.70;95.00;;;;;;4977552;28;20025;-74
2024/02/26 02:46:07;;;;;;;7.55;3.63;;;6.70;94.90;;;;;;4973471;28;20026;-76
2024/02/26 02:48:33;;;;;;;7.00;3.63;;;6.70;94.90;;;;;;4972662;28;20548;-75
2024/02/26 02:50:58;;;;;;;6.00;3.83;;;6.60;95.00;;;;;;4973789;28;20125;-77
2024/02/26 02:53:24;;;;;;;7.65;3.80;;;6.70;95.00;;;;;;4980166;28;20029;-74
2024/02/26 02:55:50;;;;;;;6.35;3.00;;;6.70;95.00;;;;;;4975982;28;20580;-74
2024/02/26 02:58:15;;;;;;;6.72;3.35;;;6.70;94.60;;;;;;4976196;28;20015;-76
2024/02/26 03:00:41;;;;;;;5.43;3.28;;;6.70;94.40;;;;;;4974521;28;20633;-74
2024/02/26 03:03:07;;;;;;;5.82;3.50;;;6.60;94.40;;;;;;4976087;28;20564;-76
2024/02/26 03:05:32;;;;;;;6.50;3.30;;;6.70;94.60;;;;;;4973882;28;20123;-77
2024/02/26 03:07:58;;;;;;;4.55;2.90;;;6.70;94.60;;;;;;4975908;28;20481;-75
2024/02/26 03:10:23;;;;;;;5.82;2.90;;;6.70;94.60;;;;;;4973897;28;20157;-75
2024/02/26 03:12:50;;;;;;;5.28;3.22;;;6.70;94.30;;;;;;4977319;28;20022;-75
2024/02/26 03:15:15;;;;;;;7.03;3.75;;;6.70;94.50;;;;;;4974624;28;20697;-75
2024/02/26 03:17:41;;;;;;;6.05;3.40;;;6.70;94.70;;;;;;4973629;28;20049;-75
2024/02/26 03:20:09;;;;;;;6.18;3.40;;;6.70;94.80;;;;;;4973848;28;20111;-74
2024/02/26 03:22:35;;;;;;;6.13;3.30;;;6.80;94.80;;;;;;4970696;28;20415;-74
2024/02/26 03:25:01;;;;;;;5.57;3.33;;;6.70;94.40;;;;;;4971016;28;20045;-75
2024/02/26 03:27:27;;;;;;;6.53;3.80;;;6.70;94.50;;;;;;4974846;28;20026;-74
2024/02/26 03:29:52;;;;;;;5.95;3.42;;;6.70;94.70;;;;;;4976464;28;20088;-76
2024/02/26 03:32:18;;;;;;;7.43;4.15;;;6.60;94.60;;;;;;4974581;28;20068;-74
2024/02/26 03:34:44;;;;;;;8.48;3.85;;;6.60;94.80;;;;;;4974156;28;20046;-75
2024/02/26 03:37:10;;;;;;;7.93;4.63;;;6.70;94.80;;;;;;4976990;28;20062;-75
2024/02/26 03:39:36;;;;;;;8.85;5.15;;;6.60;95.00;;;;;;4975396;28;20049;-74
2024/02/26 03:42:02;;;;;;;9.40;5.03;;;6.60;95.20;;;;;;4976124;28;20105;-75
2024/02/26 03:44:28;;;;;;;7.35;5.45;;;6.60;95.30;;;;;;4977201;28;20850;-74
2024/02/26 03:46:54;;;;;;;8.85;5.65;;;6.60;95.40;;;;;;4977780;28;20050;-76
2024/02/26 03:49:19;;;;;;;9.63;6.05;;;6.60;95.30;;;;;;4974597;28;20711;-74
2024/02/26 03:51:45;;;;;;;11.02;6.75;;;6.60;95.30;;;;;;4976553;28;20052;-74
2024/02/26 03:54:10;;;;;;;10.70;6.35;;;6.60;95.40;;;;;;4974441;28;20372;-74
2024/02/26 03:56:36;;;;;;;9.60;6.75;;;6.60;95.50;;;;;;4975515;28;20065;-74
2024/02/26 03:59:02;;;;;;;9.05;6.57;;;6.60;95.60;;;;;;4973286;28;20042;-76
2024/02/26 04:01:28;;;;;;;9.45;7.07;;;6.60;95.50;;;;;;4975621;28;20049;-74
2024/02/26 04:03:54;;;;;;;9.48;7.00;;;6.50;95.40;;;;;;4972284;28;20038;-75
2024/02/26 04:06:20;;;;;;;10.82;7.53;;;6.50;95.40;;;;;;4975694;28;20037;-73
2024/02/26 04:08:47;;;;;;;10.48;8.15;;;6.50;95.60;;;;;;4976656;28;20033;-76
2024/02/26 04:11:13;;;;;;;10.70;8.02;;;6.60;95.50;;;;;;4975561;28;20164;-74
2024/02/26 04:13:38;;;;;;;11.70;8.48;;;6.50;95.70;;;;;;4975032;28;20045;-74
2024/02/26 04:16:05;;;;;;;10.95;8.63;;;6.50;95.90;;;;;;4975292;28;20034;-76
2024/02/26 04:18:32;;;;;;;12.75;10.10;;;6.50;95.80;;;;;;4974760;28;20412;-74
2024/02/26 04:20:57;;;;;;;10.93;8.80;;;6.50;95.90;;;;;;4974791;28;20117;-75
2024/02/26 04:23:23;;;;;;;14.88;10.15;;;6.50;96.00;;;;;;4975003;28;20056;-75
2024/02/26 04:25:49;;;;;;;11.38;9.35;;;6.50;95.90;;;;;;4973373;28;20065;-75
2024/02/26 04:28:15;;;;;;;11.68;9.63;;;6.40;95.90;;;;;;4973117;28;20145;-76
2024/02/26 04:30:41;;;;;;;14.00;9.48;;;6.40;96.00;;;;;;4967772;28;20433;-74
2024/02/26 04:33:07;;;;;;;12.10;10.07;;;6.30;96.20;;;;;;4956192;28;20438;-76
2024/02/26 04:35:32;;;;;;;13.30;10.30;;;6.40;96.20;;;;;;4967355;28;20095;-75
2024/02/26 04:37:58;;;;;;;13.52;11.25;;;6.30;96.10;;;;;;4972742;28;20023;-75
2024/02/26 04:40:24;;;;;;;14.82;11.75;;;6.30;96.20;;;;;;4975399;28;20122;-74
2024/02/26 04:42:50;;;;;;;13.43;10.10;;;6.40;96.10;;;;;;4977700;28;20106;-74
2024/02/26 04:45:15;;;;;;;14.35;12.00;;;6.40;96.00;;;;;;4966026;28;20119;-76
2024/02/26 04:47:41;;;;;;;13.77;12.32;;;6.40;96.00;;;;;;4956704;28;20401;-75
2024/02/26 04:50:07;;;;;;;15.75;13.20;;;6.40;96.10;;;;;;4963472;28;20396;-74
2024/02/26 04:52:33;;;;;;;16.90;13.27;;;6.40;96.10;;;;;;4978836;28;20026;-75
2024/02/26 04:54:59;;;;;;;15.65;13.52;;;6.40;96.10;;;;;;4972447;28;20042;-73
2024/02/26 04:57:26;;;;;;;15.95;13.07;;;6.30;96.10;;;;;;4977106;28;20025;-75
2024/02/26 04:59:52;;;;;;;15.32;13.43;;;6.30;96.00;;;;;;4976342;28;20053;-74
2024/02/26 05:02:18;;;;;;;15.73;13.27;;;6.40;96.00;;;;;;4977728;28;20129;-76
2024/02/26 05:04:43;;;;;;;15.68;13.55;;;6.40;95.80;;;;;;4980370;28;20050;-75
2024/02/26 05:07:09;;;;;;;15.20;12.48;;;6.40;95.80;;;;;;4964999;28;20045;-76
2024/02/26 05:09:35;;;;;;;14.02;11.57;;;6.40;95.70;;;;;;4966624;28;20043;-73
2024/02/26 05:12:00;;;;;;;17.33;12.88;;;6.40;95.60;;;;;;4976406;28;20031;-75
2024/02/26 05:14:26;;;;;;;15.60;12.30;;;6.40;95.60;;;;;;4980281;28;20109;-76
2024/02/26 05:16:52;;;;;;;15.27;12.82;;;6.40;95.60;;;;;;4960041;28;20099;-75
2024/02/26 05:19:17;;;;;;;14.40;11.43;;;6.40;95.50;;;;;;4957183;28;20034;-74
2024/02/26 05:21:44;;;;;;;13.75;12.32;;;6.50;95.50;;;;;;4977830;28;20064;-75
2024/02/26 05:24:10;;;;;;;14.68;12.32;;;6.50;95.50;;;;;;4979684;28;20033;-74
2024/02/26 05:26:35;;;;;;;14.27;12.13;;;6.50;95.60;;;;;;4976771;28;20077;-75
2024/02/26 05:29:01;;;;;;;16.27;12.45;;;6.50;95.60;;;;;;4978824;28;20026;-74
2024/02/26 05:31:28;;;;;;;14.80;12.68;;;6.50;95.60;;;;;;4956490;28;20142;-74
2024/02/26 05:33:54;;;;;;;13.88;12.07;;;6.50;95.70;;;;;;4960834;28;20558;-75
2024/02/26 05:36:24;;;;;;;14.27;12.63;;;6.50;95.80;;;;;;4964137;28;20043;-75
2024/02/26 05:38:50;;;;;;;13.95;12.45;;;6.50;95.80;;;;;;4966032;28;20882;-77
2024/02/26 05:41:22;;;;;;;13.73;12.32;;;6.50;95.80;;;;;;4956744;28;20031;-75
2024/02/26 05:43:49;;;;;;;13.73;12.20;;;6.50;95.80;;;;;;4960409;28;20021;-74
2024/02/26 05:46:17;;;;;;;14.15;12.05;;;6.50;96.00;;;;;;4957468;28;20070;-74
2024/02/26 05:48:44;;;;;;;15.95;12.13;;;6.50;95.90;;;;;;4967289;28;20092;-75
2024/02/26 05:51:09;;;;;;;12.95;11.20;;;6.50;95.90;;;;;;4953991;28;20027;-74
2024/02/26 05:53:35;;;;;;;14.30;11.93;;;6.50;96.10;;;;;;4956210;28;20034;-74
2024/02/26 05:56:01;;;;;;;13.82;11.20;;;6.50;96.10;;;;;;4972493;28;20365;-74
2024/02/26 05:58:26;;;;;;;15.07;11.13;;;6.50;96.10;;;;;;4978706;28;20022;-74
2024/02/26 06:00:52;;;;;;;11.88;10.57;;;6.40;96.10;;;;;;4979983;28;20433;-76
2024/02/26 06:03:17;;;;;;;13.55;11.32;;;6.40;96.00;;;;;;4979527;28;20030;-76
2024/02/26 06:05:43;;;;;;;14.43;11.20;;;6.50;95.90;;;;;;4972091;28;20052;-76
2024/02/26 06:08:09;;;;;;;12.48;10.40;;;6.50;96.00;;;;;;4976556;28;20077;-75
2024/02/26 06:10:34;;;;;;;12.75;10.85;;;6.50;95.90;;;;;;4976315;28;20045;-74
2024/02/26 06:13:00;;;;;;;12.98;10.23;;;6.50;95.80;;;;;;4976945;28;20101;-74
2024/02/26 06:15:26;;;;;;;13.65;10.82;;;6.50;95.90;;;;;;4973971;28;20125;-74
2024/02/26 06:17:51;;;;;;;14.27;11.43;;;6.50;95.90;;;;;;4972498;28;20021;-74
2024/02/26 06:20:17;;;;;;;14.88;12.55;;;6.40;95.80;;;;;;4963945;28;23387;-74
2024/02/26 06:22:42;;;;;;;16.27;12.90;;;6.50;95.90;;;;;;4959917;28;20031;-75
2024/02/26 06:25:08;;;;;;;14.02;12.00;;;6.40;96.00;;;;;;4945968;28;21571;-74
2024/02/26 06:27:34;;;;;;;16.48;13.77;;;6.40;96.00;;;;;;4959067;28;20059;-76
2024/02/26 06:30:00;;;;;;;14.25;12.75;;;6.40;96.00;;;;;;4960397;28;20033;-74
2024/02/26 06:32:28;;;;;;;16.00;13.45;;;6.40;95.80;;;;;;4978390;28;20022;-73
2024/02/26 06:34:53;;;;;;;16.17;14.25;;;6.40;95.80;;;;;;4974555;28;20050;-76
2024/02/26 06:37:19;;;;;;;17.15;14.73;;;6.40;95.90;;;;;;4975413;28;20037;-74
2024/02/26 06:39:44;;;;;;;16.17;14.15;;;6.40;96.00;;;;;;4971449;28;20030;-73
2024/02/26 06:42:10;;;;;;;15.57;13.88;;;6.40;96.10;;;;;;4975132;28;20930;-73
2024/02/26 06:44:36;;;;;;;17.27;14.95;;;6.30;96.00;;;;;;4973294;28;20040;-74
2024/02/26 06:47:02;;;;;;;17.67;15.15;;;6.30;96.10;;;;;;4976192;28;20059;-76
2024/02/26 06:49:28;;;;;;;18.20;15.70;;;6.40;96.20;;;;;;4975132;28;20030;-75
2024/02/26 06:51:54;;;;;;;19.05;17.05;;;6.40;95.90;;;;;;4976973;28;20174;-76
2024/02/26 06:54:20;;;;;;;19.33;17.33;;;6.40;96.00;;;;;;4979059;28;20030;-75
2024/02/26 06:56:46;;;;;;;19.83;15.90;;;6.30;95.90;;;;;;4976855;28;20089;-74
2024/02/26 06:59:11;;;;;;;18.65;16.45;;;6.30;96.00;;;;;;4974449;28;20018;-76
2024/02/26 07:01:37;;;;;;;19.25;16.70;;;6.30;96.00;;;;;;4970152;28;20508;-74
2024/02/26 07:04:03;;;;;;;20.10;17.80;;;6.30;96.00;;;;;;4973563;28;20038;-74
2024/02/26 07:06:28;;;;;;;19.05;16.70;;;6.30;96.00;;;;;;4975980;28;20428;-76
2024/02/26 07:08:54;;;;;;;18.63;16.45;;;6.30;96.10;;;;;;4971732;28;20038;-75
2024/02/26 07:11:20;;;;;;;18.45;16.55;;;6.30;96.00;;;;;;4973495;28;20030;-74
2024/02/26 07:13:46;;;;;;;19.02;16.35;;;6.30;95.90;;;;;;4975325;28;20381;-74
2024/02/26 07:16:12;;;;;;;17.35;15.52;;;6.20;95.90;;;;;;4976301;28;20068;-75
2024/02/26 07:18:40;;;;;;;17.70;14.35;;;6.30;96.10;;;;;;4975806;28;20187;-75
2024/02/26 07:21:06;;;;;;;16.63;14.90;;;6.30;95.90;;;;;;4974827;28;20035;-75
2024/02/26 07:23:32;;;;;;;16.45;14.40;;;6.30;95.70;;;;;;4973824;28;20026;-74
2024/02/26 07:25:57;;;;;;;16.35;13.93;;;6.20;95.70;;;;;;4976484;28;20042;-76
2024/02/26 07:28:24;;;;;;;17.52;15.07;;;6.20;95.60;;;;;;4976556;28;20089;-74
2024/02/26 07:30:50;;;;;;;15.90;14.25;;;6.30;95.60;;;;;;4973474;28;20081;-74
2024/02/26 07:33:15;;;;;;;15.95;14.25;;;6.20;95.50;;;;;;4975503;28;21908;-76
2024/02/26 07:35:41;;;;;;;18.15;15.15;;;6.30;95.60;;;;;;4973621;28;20619;-74
2024/02/26 07:38:07;;;;;;;17.67;14.38;;;6.20;95.20;;;;;;4972741;28;20032;-75
2024/02/26 07:40:32;;;;;;;18.00;14.13;;;6.30;95.20;;;;;;4973593;28;20145;-76
2024/02/26 07:42:58;;;;;;;15.80;13.68;;;6.20;95.20;;;;;;4974963;28;20035;-75
2024/02/26 07:45:24;;;;;;;16.02;12.80;;;6.20;95.10;;;;;;4973754;28;20042;-75
2024/02/26 07:47:51;;;;;;;15.90;12.60;;;6.20;95.10;;;;;;4978246;28;20018;-75
2024/02/26 07:50:17;;;;;;;14.55;12.70;;;6.20;95.10;;;;;;4974219;28;20030;-77
2024/02/26 07:52:42;;;;;;;15.00;12.10;;;6.30;95.00;;;;;;4978256;28;20041;-78
2024/02/26 07:55:08;;;;;;;15.75;11.80;;;6.20;94.80;;;;;;4975175;28;20054;-77
2024/02/26 07:57:34;;;;;;;14.18;12.35;;;6.20;94.80;;;;;;4973252;28;20423;-76
2024/02/26 08:00:00;;;;;;;14.32;11.80;;;6.30;94.70;;;;;;4973598;28;20038;-74
2024/02/26 08:02:26;;;;;;;14.73;12.20;;;6.30;94.90;;;;;;4974021;28;20101;-75
2024/02/26 08:04:51;;;;;;;14.82;11.88;;;6.30;95.00;;;;;;4976231;28;20193;-75
2024/02/26 08:07:17;;;;;;;16.25;12.23;;;6.30;95.00;;;;;;4972351;28;20042;-74
2024/02/26 08:09:43;;;;;;;13.25;11.20;;;6.20;95.10;;;;;;4971193;28;20031;-73
2024/02/26 08:12:08;;;;;;;15.85;11.40;;;6.20;95.20;;;;;;4971433;28;20041;-74
2024/02/26 08:14:34;;;;;;;13.20;11.25;;;6.20;95.20;;;;;;4972785;28;20081;-75
2024/02/26 08:17:00;;;;;;;15.27;12.18;;;6.20;95.30;;;;;;4975590;28;20081;-74
2024/02/26 08:19:26;;;;;;;13.85;11.50;;;6.20;95.30;;;;;;4979901;28;20322;-73
2024/02/26 08:21:52;;;;;;;16.48;11.40;;;6.20;95.10;;;;;;4977308;28;20027;-73
2024/02/26 08:24:18;;;;;;;12.82;10.13;;;6.20;95.30;;;;;;4978093;28;20033;-74
2024/02/26 08:26:43;;;;;;;15.77;10.93;;;6.20;95.30;;;;;;4981213;28;20503;-74
2024/02/26 08:29:09;;;;;;;14.13;10.93;;;6.20;95.40;;;;;;4976679;28;20093;-73
2024/02/26 08:31:37;;;;;;;14.38;11.00;;;6.20;95.50;;;;;;4977010;28;20173;-73
2024/02/26 08:34:03;;;;;;;20.02;12.60;;;6.20;95.50;;;;;;4980265;28;20116;-74
2024/02/26 08:36:31;;;;;;;17.58;11.45;;;6.20;95.60;;;;;;4977375;28;20061;-74
2024/02/26 08:38:57;;;;;;;14.88;10.45;;;6.20;95.70;;;;;;4978483;28;20026;-74
2024/02/26 08:41:22;;;;;;;15.32;11.00;;;6.20;95.60;;;;;;4977698;28;20057;-72
2024/02/26 08:43:48;;;;;;;16.45;11.52;;;6.20;95.70;;;;;;4980305;28;20362;-73
2024/02/26 08:46:13;;;;;;;13.63;10.80;;;6.10;95.80;;;;;;4970143;28;20249;-75
2024/02/26 08:48:40;;;;;;;16.65;12.13;;;6.10;95.90;;;;;;4980705;28;20144;-74
2024/02/26 08:51:09;;;;;;;13.65;10.43;;;6.10;95.90;;;;;;4975010;28;20047;-73
2024/02/26 08:53:35;;;;;;;18.17;12.80;;;6.10;95.80;;;;;;4979828;28;20587;-73
2024/02/26 08:56:01;;;;;;;14.77;11.82;;;6.10;95.90;;;;;;4977814;28;20103;-73
2024/02/26 08:58:28;;;;;;;14.43;11.57;;;6.10;96.00;;;;;;4979314;28;20473;-75
2024/02/26 09:00:54;;;;;;;13.63;10.65;;;6.10;96.00;;;;;;4986342;28;20295;-74
2024/02/26 09:03:19;;;;;;;14.95;11.75;;;6.10;96.10;;;;;;4981029;28;20334;-73
2024/02/26 09:05:45;;;;;;;15.50;11.57;;;6.10;95.90;;;;;;4978350;28;20164;-74
2024/02/26 09:08:10;;;;;;;14.95;11.38;;;6.10;96.00;;;;;;4984032;28;20037;-73
2024/02/26 09:10:36;;;;;;;17.20;12.07;;;6.10;96.10;;;;;;4975902;28;20485;-74
2024/02/26 09:13:02;;;;;;;14.65;11.73;;;6.10;96.20;;;;;;4979310;28;20483;-72
2024/02/26 09:15:27;;;;;;;15.68;12.10;;;6.10;95.90;;;;;;4971328;28;20050;-73
2024/02/26 09:17:53;;;;;;;15.55;12.35;;;6.10;96.00;;;;;;4971579;28;20015;-74
2024/02/26 09:20:20;;;;;;;17.02;12.55;;;6.10;96.30;;;;;;4976468;28;20322;-73
2024/02/26 09:22:48;;;;;;;16.88;12.07;;;6.20;96.20;;;;;;4978319;28;20026;-73
2024/02/26 09:25:15;;;;;;;15.93;11.65;;;6.10;96.10;;;;;;4968321;28;20061;-75
2024/02/26 09:27:45;;;;;;;14.82;11.93;;;6.20;96.10;;;;;;4979326;28;20030;-73
2024/02/26 09:30:11;;;;;;;15.88;11.77;;;6.20;96.10;;;;;;4977471;28;21256;-73
2024/02/26 09:32:38;;;;;;;17.60;12.80;;;6.20;96.00;;;;;;4969041;28;20406;-74
2024/02/26 09:35:05;;;;;;;14.68;11.65;;;6.20;95.80;;;;;;4976479;28;20400;-72
2024/02/26 09:37:31;;;;;;;16.35;12.20;;;6.20;95.70;;;;;;4978707;28;20014;-72
2024/02/26 09:39:56;;;;;;;21.65;13.48;;;6.10;95.80;;;;;;4977201;28;20060;-73
2024/02/26 09:42:25;;;;;;;15.52;11.82;;;6.10;95.70;;;;;;4977221;28;20564;-73
2024/02/26 09:44:54;;;;;;;17.02;12.80;;;6.10;95.70;;;;;;4976981;28;20034;-73
2024/02/26 09:47:21;;;;;;;16.77;13.00;;;6.10;95.80;;;;;;4978642;28;20288;-73
2024/02/26 09:49:51;;;;;;;16.77;13.50;;;6.10;96.10;;;;;;4976198;28;20027;-73
2024/02/26 09:52:19;;;;;;;16.42;12.50;;;6.10;96.00;;;;;;4979208;28;20439;-72
2024/02/26 09:54:47;;;;;;;15.13;11.52;;;6.10;96.00;;;;;;4977343;28;20585;-74
2024/02/26 09:57:16;;;;;;;16.65;13.43;;;6.10;95.70;;;;;;4972385;28;20388;-74
2024/02/26 09:59:43;;;;;;;18.95;14.50;;;6.10;96.00;;;;;;4978065;28;20022;-73
2024/02/26 10:02:13;;;;;;;17.50;13.65;;;6.10;96.00;;;;;;4978219;28;20133;-72
2024/02/26 10:04:42;;;;;;;17.48;13.18;;;6.10;95.90;;;;;;4977651;28;20038;-73
2024/02/26 10:07:13;;;;;;;14.38;12.52;;;6.10;95.90;;;;;;4975674;28;20194;-73
2024/02/26 10:09:39;;;;;;;17.92;13.10;;;6.10;95.80;;;;;;4977767;28;20050;-75
2024/02/26 10:12:09;;;;;;;16.35;13.20;;;6.10;95.80;;;;;;4975509;28;20039;-73
2024/02/26 10:14:36;;;;;;;18.60;15.05;;;6.10;95.80;;;;;;4975704;28;20112;-73
2024/02/26 10:17:02;;;;;;;16.95;14.00;;;6.10;95.80;;;;;;4971636;28;20852;-72
2024/02/26 10:19:31;;;;;;;17.02;12.77;;;6.10;95.70;;;;;;4971396;28;20045;-73
2024/02/26 10:21:58;;;;;;;14.85;12.38;;;6.10;95.60;;;;;;4975941;28;20050;-75
2024/02/26 10:24:25;;;;;;;16.60;13.77;;;6.10;95.60;;;;;;4972667;28;20054;-72
2024/02/26 10:26:52;;;;;;;19.13;14.05;;;6.10;95.70;;;;;;4977117;28;20026;-73
2024/02/26 10:29:19;;;;;;;16.20;13.43;;;6.10;95.70;;;;;;4961555;28;20575;-72
2024/02/26 10:31:45;;;;;;;14.75;11.70;;;6.10;95.80;;;;;;4958560;28;20536;-73
2024/02/26 10:34:10;;;;;;;17.27;13.45;;;6.10;95.50;;;;;;4951847;28;20030;-75
2024/02/26 10:36:37;;;;;;;17.67;13.15;;;6.10;95.30;;;;;;4976654;28;20079;-74
2024/02/26 10:39:05;;;;;;;16.42;12.55;;;6.10;95.30;;;;;;4974983;28;20092;-74
2024/02/26 10:41:32;;;;;;;18.33;12.88;;;6.10;95.30;;;;;;4969878;28;20042;-72
2024/02/26 10:43:58;;;;;;;17.50;12.75;;;6.10;95.20;;;;;;4975283;28;20073;-73
2024/02/26 10:46:25;;;;;;;20.33;13.45;;;6.10;95.10;;;;;;4976565;28;20039;-73
2024/02/26 10:48:52;;;;;;;15.52;12.82;;;6.10;95.40;;;;;;4979278;28;20023;-76
2024/02/26 10:51:28;;;;;;;16.00;12.35;;;6.10;95.10;;;;;;4975083;28;20109;-75
2024/02/26 10:53:59;;;;;;;15.93;12.10;;;6.10;95.10;;;;;;4978961;28;20041;-74
2024/02/26 10:56:27;;;;;;;17.80;12.80;;;6.10;95.00;;;;;;4976608;28;20113;-73
2024/02/26 10:58:53;;;;;;;15.35;11.45;;;6.10;95.10;;;;;;4976365;28;20425;-76
2024/02/26 11:01:21;;;;;;;18.40;13.18;;;6.10;95.00;;;;;;4974424;28;20048;-73
2024/02/26 11:03:50;;;;;;;19.40;13.95;;;6.10;95.00;;;;;;4978509;28;20077;-76
2024/02/26 11:06:17;;;;;;;21.83;15.50;;;6.20;95.20;;;;;;4967139;28;20660;-73
2024/02/26 11:08:43;;;;;;;23.25;16.35;;;6.30;95.50;;;;;;4977819;28;20112;-73
2024/02/26 11:11:09;;;;;;;24.42;16.98;;;6.20;95.50;;;;;;4966068;28;20068;-74
2024/02/26 11:13:39;;;;;;;23.85;16.95;;;6.20;95.60;;;;;;4972850;28;20440;-74
2024/02/26 11:16:06;;;;;;;26.15;16.70;;;6.20;95.40;;;;;;4974572;28;20027;-73
2024/02/26 11:18:33;;;;;;;23.90;17.65;;;6.20;95.50;;;;;;4978557;28;20042;-74
2024/02/26 11:21:00;;;;;;;25.58;17.35;;;6.20;95.70;;;;;;4972807;28;20492;-74
2024/02/26 11:23:26;;;;;;;24.60;17.08;;;6.10;95.40;;;;;;4975675;28;20516;-73
2024/02/26 11:25:54;;;;;;;24.45;17.40;;;6.10;95.50;;;;;;4975203;28;20120;-74
2024/02/26 11:28:21;;;;;;;24.60;17.55;;;6.20;95.50;;;;;;4977720;28;20034;-75
2024/02/26 11:30:49;;;;;;;24.38;17.67;;;6.10;95.50;;;;;;4964904;28;20023;-74
2024/02/26 11:33:15;;;;;;;27.10;18.42;;;6.20;95.60;;;;;;4956370;28;20027;-75
2024/02/26 11:35:42;;;;;;;27.17;19.02;;;6.20;95.90;;;;;;4965175;28;20389;-74
2024/02/26 11:38:08;;;;;;;27.40;19.10;;;6.20;95.70;;;;;;4977001;28;20114;-73
2024/02/26 11:40:42;;;;;;;27.63;19.55;;;6.20;95.60;;;;;;4976695;28;20041;-74
2024/02/26 11:43:08;;;;;;;27.27;19.80;;;6.20;95.80;;;;;;4975445;28;20030;-74
2024/02/26 11:45:40;;;;;;;23.35;17.00;;;6.20;95.80;;;;;;4975582;28;20324;-74
2024/02/26 11:48:12;;;;;;;26.52;18.63;;;6.10;95.40;;;;;;4975419;28;20505;-72
2024/02/26 11:50:43;;;;;;;25.08;19.02;;;6.10;95.50;;;;;;4968821;28;20062;-74
2024/02/26 11:53:31;;;;;;;25.48;19.17;;;6.00;95.70;;;;;;4974079;28;20443;-73
2024/02/26 11:56:37;;;;;;;23.35;17.70;;;6.10;96.00;;;;;;4974221;28;20045;-73
2024/02/26 11:59:10;;;;;;;25.05;17.33;;;6.10;95.90;;;;;;4973528;28;20570;-73
2024/02/26 12:01:39;;;;;;;22.73;17.42;;;6.00;95.80;;;;;;4971595;28;20030;-74
2024/02/26 12:04:06;;;;;;;22.58;16.73;;;6.00;95.90;;;;;;4976092;28;20109;-74
2024/02/26 12:06:45;;;;;;;22.23;16.40;;;6.10;95.90;;;;;;4974469;28;20412;-74
2024/02/26 12:09:11;;;;;;;27.50;19.10;;;6.10;96.00;;;;;;4975103;28;20323;-74
2024/02/26 12:11:42;;;;;;;22.38;16.77;;;6.20;96.10;;;;;;4974567;28;20034;-74
2024/02/26 12:14:09;;;;;;;20.08;15.00;;;6.10;95.90;;;;;;4976460;28;20128;-74
2024/02/26 12:16:37;;;;;;;21.60;15.25;;;6.10;95.70;;;;;;4975757;28;20030;-75
2024/02/26 12:19:05;;;;;;;20.42;14.88;;;6.00;95.50;;;;;;4964583;28;20022;-74
2024/02/26 12:21:34;;;;;;;21.42;16.02;;;6.10;95.70;;;;;;4973923;28;20041;-74
2024/02/26 12:24:15;;;;;;;19.85;13.57;;;6.10;95.60;;;;;;4974871;28;20018;-74
2024/02/26 12:26:41;;;;;;;20.48;15.65;;;6.10;95.50;;;;;;4960127;28;20243;-74
2024/02/26 12:29:07;;;;;;;19.20;14.57;;;6.10;95.50;;;;;;4952812;28;20323;-73
2024/02/26 12:31:33;;;;;;;19.17;14.00;;;6.10;95.70;;;;;;4956944;28;20201;-73
2024/02/26 12:34:00;;;;;;;17.70;13.65;;;6.20;95.50;;;;;;4945122;28;20122;-74
2024/02/26 12:36:26;;;;;;;16.63;13.48;;;6.20;95.40;;;;;;4972321;28;20050;-73
2024/02/26 12:38:52;;;;;;;17.35;14.20;;;6.20;95.50;;;;;;4976605;28;20066;-73